createdAt,value
2022-08-05T00:01:35.620Z,23.26
2022-08-05T00:04:16.536Z,23.15
2022-08-05T00:06:44.660Z,23.12
2022-08-05T00:09:19.723Z,23.02
2022-08-05T00:11:49.313Z,22.93
2022-08-05T00:14:27.579Z,22.91
2022-08-05T00:16:57.766Z,22.86
2022-08-05T00:19:33.374Z,22.80
2022-08-05T00:22:02.435Z,22.73
2022-08-05T00:24:31.916Z,22.56
2022-08-05T00:27:00.497Z,22.50
2022-08-05T00:29:37.776Z,22.47
2022-08-05T00:32:13.013Z,22.41
2022-08-05T00:35:03.438Z,22.32
2022-08-05T00:37:35.519Z,22.27
2022-08-05T00:40:27.315Z,22.33
2022-08-05T00:42:57.650Z,22.23
2022-08-05T00:45:38.015Z,22.20
2022-08-05T00:48:08.138Z,22.18
2022-08-05T00:50:37.717Z,22.12
2022-08-05T00:53:09.760Z,22.03
2022-08-05T00:55:55.347Z,22.19
2022-08-05T00:58:27.205Z,22.06
2022-08-05T01:00:55.622Z,21.90
2022-08-05T01:03:24.390Z,21.79
2022-08-05T01:05:59.345Z,21.67
2022-08-05T01:08:42.111Z,21.61
2022-08-05T01:11:22.370Z,21.50
2022-08-05T01:14:08.432Z,21.45
2022-08-05T01:16:44.279Z,21.55
2022-08-05T01:19:36.566Z,21.58
2022-08-05T01:22:27.919Z,21.48
2022-08-05T01:25:17.473Z,21.36
2022-08-05T01:28:01.041Z,21.30
2022-08-05T01:30:34.080Z,21.27
2022-08-05T01:33:08.376Z,21.18
2022-08-05T01:35:50.780Z,21.09
2022-08-05T01:38:27.101Z,21.08
2022-08-05T01:41:01.231Z,21.01
2022-08-05T01:43:33.229Z,20.94
2022-08-05T01:46:07.317Z,20.92
2022-08-05T01:48:49.647Z,20.86
2022-08-05T01:51:19.388Z,20.83
2022-08-05T01:53:58.004Z,20.77
2022-08-05T01:58:12.153Z,20.77
2022-08-05T01:59:24.453Z,20.72
2022-08-05T02:01:57.643Z,20.70
2022-08-05T02:04:30.008Z,20.68
2022-08-05T02:06:59.990Z,20.60
2022-08-05T02:09:31.941Z,20.60
2022-08-05T02:12:06.312Z,20.53
2022-08-05T02:14:47.825Z,20.46
2022-08-05T02:18:28.292Z,20.41
2022-08-05T02:20:20.523Z,20.42
2022-08-05T02:22:56.684Z,20.32
2022-08-05T02:25:33.415Z,20.36
2022-08-05T02:28:18.975Z,20.25
2022-08-05T02:31:01.935Z,20.18
2022-08-05T02:33:38.916Z,20.18
2022-08-05T02:36:13.721Z,20.24
2022-08-05T02:38:52.733Z,20.17
2022-08-05T02:41:23.362Z,20.17
2022-08-05T02:44:06.200Z,20.12
2022-08-05T02:46:58.969Z,20.06
2022-08-05T02:49:36.905Z,20.01
2022-08-05T02:52:09.283Z,19.93
2022-08-05T02:54:41.171Z,19.93
2022-08-05T02:58:09.459Z,19.86
2022-08-05T03:00:02.806Z,19.83
2022-08-05T03:02:38.016Z,19.93
2022-08-05T03:05:10.251Z,19.95
2022-08-05T03:08:01.930Z,19.89
2022-08-05T03:10:29.013Z,19.83
2022-08-05T03:15:24.560Z,19.73
2022-08-05T03:17:57.608Z,19.73
2022-08-05T03:20:26.604Z,19.74
2022-08-05T03:22:57.124Z,19.71
2022-08-05T03:25:33.904Z,19.67
2022-08-05T03:28:18.716Z,19.64
2022-08-05T03:30:47.895Z,19.56
2022-08-05T03:33:17.900Z,19.56
2022-08-05T03:35:46.807Z,19.54
2022-08-05T03:38:15.599Z,19.50
2022-08-05T03:40:45.332Z,19.51
2022-08-05T03:44:08.201Z,19.60
2022-08-05T03:46:05.293Z,19.76
2022-08-05T03:48:38.066Z,19.98
2022-08-05T03:52:50.354Z,20.80
2022-08-05T03:55:50.981Z,21.94
2022-08-05T03:56:58.978Z,22.93
2022-08-05T03:59:47.611Z,23.83
2022-08-05T04:02:38.934Z,24.83
2022-08-05T04:05:13.751Z,25.77
2022-08-05T04:07:58.103Z,26.36
2022-08-05T04:10:31.993Z,27.31
2022-08-05T04:13:06.505Z,27.65
2022-08-05T04:15:36.056Z,27.63
2022-08-05T04:18:06.682Z,28.79
2022-08-05T04:20:37.303Z,29.43
2022-08-05T04:23:05.726Z,30.02
2022-08-05T04:25:57.853Z,30.62
2022-08-05T04:28:31.715Z,31.64
2022-08-05T04:31:01.034Z,32.28
2022-08-05T04:33:54.811Z,33.09
2022-08-05T04:36:46.089Z,34.01
2022-08-05T04:39:08.886Z,34.63
2022-08-05T04:41:38.718Z,34.97
2022-08-05T04:44:09.056Z,35.03
2022-08-05T04:46:38.116Z,35.67
2022-08-05T04:49:12.315Z,35.15
2022-08-05T04:51:44.513Z,35.64
2022-08-05T04:54:14.872Z,36.61
2022-08-05T04:56:43.634Z,37.05
2022-08-05T04:59:21.755Z,37.61
2022-08-05T05:02:35.231Z,36.92
2022-08-05T05:04:43.861Z,37.55
2022-08-05T05:07:17.716Z,38.00
2022-08-05T05:09:46.111Z,38.77
2022-08-05T05:12:14.906Z,38.82
2022-08-05T05:14:50.698Z,38.62
2022-08-05T05:17:23.891Z,38.78
2022-08-05T05:19:56.461Z,40.20
2022-08-05T05:22:26.999Z,39.49
2022-08-05T05:24:57.351Z,39.31
2022-08-05T05:27:44.309Z,39.63
2022-08-05T05:30:15.682Z,40.64
2022-08-05T05:33:00.735Z,41.49
2022-08-05T05:35:37.599Z,41.02
2022-08-05T05:38:09.388Z,41.70
2022-08-05T05:40:49.730Z,42.21
2022-08-05T05:43:27.472Z,40.67
2022-08-05T05:46:13.785Z,42.03
2022-08-05T05:48:44.693Z,41.48
2022-08-05T05:51:20.202Z,41.91
2022-08-05T05:53:58.042Z,41.63
2022-08-05T05:56:32.182Z,42.18
2022-08-05T05:59:05.283Z,41.51
2022-08-05T06:01:37.426Z,41.61
2022-08-05T06:04:08.302Z,40.42
2022-08-05T06:06:41.853Z,40.23
2022-08-05T06:09:17.322Z,40.53
2022-08-05T06:12:01.658Z,40.17
2022-08-05T06:14:31.106Z,40.44
2022-08-05T06:17:02.227Z,38.89
2022-08-05T06:19:56.637Z,38.31
2022-08-05T06:22:30.487Z,38.85
2022-08-05T06:25:25.118Z,38.66
2022-08-05T06:28:10.783Z,38.27
2022-08-05T06:30:40.196Z,37.82
2022-08-05T06:33:10.032Z,37.77
2022-08-05T06:36:07.318Z,37.44
2022-08-05T06:38:36.512Z,37.20
2022-08-05T06:41:07.863Z,36.53
2022-08-05T06:43:58.072Z,36.92
2022-08-05T06:46:30.104Z,35.83
2022-08-05T06:49:00.789Z,36.49
2022-08-05T06:51:30.891Z,35.86
2022-08-05T06:54:00.141Z,36.78
2022-08-05T06:56:34.964Z,36.58
2022-08-05T06:59:03.788Z,36.06
2022-08-05T07:01:36.964Z,36.76
2022-08-05T07:04:05.382Z,36.47
2022-08-05T07:06:33.464Z,35.76
2022-08-05T07:09:05.897Z,35.39
2022-08-05T07:11:37.063Z,35.65
2022-08-05T07:14:28.821Z,35.18
2022-08-05T07:18:01.493Z,35.61
2022-08-05T07:22:38.708Z,34.92
2022-08-05T07:25:22.923Z,34.88
2022-08-05T07:28:03.852Z,34.99
2022-08-05T07:30:39.015Z,34.61
2022-08-05T07:33:15.610Z,34.84
2022-08-05T07:36:02.373Z,34.94
2022-08-05T07:38:35.387Z,34.93
2022-08-05T07:41:34.959Z,35.07
2022-08-05T07:44:04.865Z,34.91
2022-08-05T07:46:34.602Z,34.64
2022-08-05T07:49:07.749Z,34.66
2022-08-05T07:51:40.896Z,35.01
2022-08-05T07:54:18.615Z,34.83
2022-08-05T07:57:02.477Z,34.75
2022-08-05T07:59:40.167Z,34.59
2022-08-05T08:02:16.660Z,34.61
2022-08-05T08:04:46.801Z,34.75
2022-08-05T08:07:15.550Z,34.32
2022-08-05T08:09:43.905Z,33.97
2022-08-05T08:12:37.491Z,34.04
2022-08-05T08:15:04.298Z,33.79
2022-08-05T08:17:33.284Z,33.22
2022-08-05T08:20:22.499Z,33.60
2022-08-05T08:22:54.239Z,33.46
2022-08-05T08:25:26.861Z,33.43
2022-08-05T08:28:18.268Z,33.82
2022-08-05T08:30:49.952Z,33.71
2022-08-05T08:33:19.179Z,34.02
2022-08-05T08:35:52.993Z,34.18
2022-08-05T08:38:32.282Z,34.29
2022-08-05T08:41:09.385Z,34.39
2022-08-05T08:45:20.172Z,34.48
2022-08-05T08:46:30.999Z,34.69
2022-08-05T08:49:09.597Z,34.62
2022-08-05T08:52:05.786Z,34.42
2022-08-05T08:54:38.888Z,34.48
2022-08-05T08:57:11.853Z,34.66
2022-08-05T08:59:47.021Z,34.52
2022-08-05T09:02:20.192Z,34.63
2022-08-05T09:05:15.974Z,33.76
2022-08-05T09:07:39.870Z,34.12
2022-08-05T09:10:27.749Z,34.03
2022-08-05T09:13:04.966Z,34.19
2022-08-05T09:15:37.085Z,34.29
2022-08-05T09:18:09.970Z,34.44
2022-08-05T09:20:44.534Z,34.59
2022-08-05T09:23:19.873Z,34.76
2022-08-05T09:26:00.858Z,34.60
2022-08-05T09:28:34.307Z,34.73
2022-08-05T09:32:38.726Z,34.83
2022-08-05T09:33:58.773Z,34.78
2022-08-05T09:36:45.636Z,34.69
2022-08-05T09:39:39.368Z,34.79
2022-08-05T09:42:17.459Z,34.97
2022-08-05T09:44:56.819Z,35.14
2022-08-05T09:47:48.379Z,34.89
2022-08-05T09:50:38.670Z,34.59
2022-08-05T09:53:09.097Z,34.89
2022-08-05T09:55:57.918Z,34.88
2022-08-05T09:58:29.323Z,34.87
2022-08-05T10:01:01.755Z,35.01
2022-08-05T10:03:59.557Z,35.06
2022-08-05T10:06:31.091Z,34.94
2022-08-05T10:09:27.314Z,34.75
2022-08-05T10:11:56.287Z,34.70
2022-08-05T10:14:30.293Z,34.78
2022-08-05T10:17:37.840Z,34.92
2022-08-05T10:20:10.104Z,34.70
2022-08-05T10:22:43.191Z,34.95
2022-08-05T10:25:20.335Z,35.21
2022-08-05T10:28:12.887Z,35.11
2022-08-05T10:32:49.350Z,35.09
2022-08-05T10:33:28.896Z,35.19
2022-08-05T10:35:59.781Z,35.34
2022-08-05T10:38:33.293Z,35.69
2022-08-05T10:41:12.358Z,35.76
2022-08-05T10:43:50.381Z,35.66
2022-08-05T10:46:23.777Z,34.77
2022-08-05T10:49:02.754Z,34.95
2022-08-05T10:51:57.721Z,35.29
2022-08-05T10:54:56.335Z,35.46
2022-08-05T10:57:30.833Z,35.57
2022-08-05T11:00:16.394Z,35.52
2022-08-05T11:03:24.777Z,35.34
2022-08-05T11:06:06.219Z,35.32
2022-08-05T11:09:17.336Z,35.37
2022-08-05T11:11:53.435Z,35.34
2022-08-05T11:14:49.503Z,35.65
2022-08-05T11:18:09.480Z,35.69
2022-08-05T11:20:41.835Z,35.64
2022-08-05T11:24:04.750Z,35.76
2022-08-05T11:26:32.619Z,35.69
2022-08-05T11:29:12.102Z,35.96
2022-08-05T11:31:58.023Z,36.07
2022-08-05T11:34:50.737Z,35.92
2022-08-05T11:38:29.936Z,35.98
2022-08-05T11:41:03.489Z,35.57
2022-08-05T11:44:04.574Z,35.68
2022-08-05T11:46:37.477Z,35.62
2022-08-05T11:49:08.005Z,35.85
2022-08-05T11:51:44.115Z,36.08
2022-08-05T11:54:33.600Z,36.07
2022-08-05T11:57:07.972Z,35.87
2022-08-05T11:59:52.441Z,35.66
2022-08-05T12:02:30.952Z,35.80
2022-08-05T12:05:06.549Z,35.99
2022-08-05T12:08:07.374Z,36.15
2022-08-05T12:10:38.660Z,36.25
2022-08-05T12:13:16.565Z,36.19
2022-08-05T12:15:45.368Z,36.04
2022-08-05T12:18:24.215Z,35.99
2022-08-05T12:20:52.776Z,35.69
2022-08-05T12:23:20.932Z,35.75
2022-08-05T12:25:53.827Z,35.70
2022-08-05T12:28:36.695Z,35.99
2022-08-05T12:31:06.221Z,36.08
2022-08-05T12:33:38.490Z,36.04
2022-08-05T12:36:09.274Z,36.04
2022-08-05T12:38:39.470Z,36.07
2022-08-05T12:43:59.917Z,36.00
2022-08-05T12:46:31.415Z,36.12
2022-08-05T12:49:11.988Z,36.17
2022-08-05T12:52:13.619Z,35.99
2022-08-05T12:54:39.865Z,36.05
2022-08-05T12:57:13.011Z,36.23
